createdAt,value
2017-06-25T00:00:22.795Z,65.05
2017-06-25T00:01:03.278Z,64.86
2017-06-25T00:01:43.758Z,64.08
2017-06-25T00:02:24.251Z,64.47
2017-06-25T00:03:04.744Z,64.95
2017-06-25T00:03:45.242Z,65.24
2017-06-25T00:04:25.736Z,65.63
2017-06-25T00:05:06.227Z,65.43
2017-06-25T00:05:46.714Z,65.43
2017-06-25T00:07:59.446Z,65.24
2017-06-25T00:08:39.929Z,65.14
2017-06-25T00:09:20.427Z,65.05
2017-06-25T00:10:00.921Z,65.05
2017-06-25T00:10:41.399Z,64.86
2017-06-25T00:11:21.896Z,64.66
2017-06-25T00:12:02.373Z,64.47
2017-06-25T00:12:42.864Z,64.31
2017-06-25T00:13:23.363Z,63.73
2017-06-25T00:14:03.848Z,63.73
2017-06-25T00:14:44.345Z,63.73
2017-06-25T00:15:24.835Z,63.73
2017-06-25T00:16:05.328Z,64.21
2017-06-25T00:16:45.821Z,63.82
2017-06-25T00:17:26.322Z,63.63
2017-06-25T00:18:06.817Z,63.06
2017-06-25T00:18:47.307Z,62.76
2017-06-25T00:19:27.815Z,62.96
2017-06-25T00:20:08.318Z,62.86
2017-06-25T00:20:48.809Z,62.09
2017-06-25T00:21:29.297Z,62.22
2017-06-25T00:22:09.805Z,62.02
2017-06-25T00:22:50.289Z,61.35
2017-06-25T00:23:30.783Z,61.54
2017-06-25T00:24:11.264Z,61.06
2017-06-25T00:24:51.765Z,60.96
2017-06-25T00:25:32.259Z,60.28
2017-06-25T00:26:12.747Z,60.38
2017-06-25T00:26:53.271Z,59.9
2017-06-25T00:27:33.722Z,59.8
2017-06-25T00:28:14.220Z,60
2017-06-25T00:28:54.720Z,59.71
2017-06-25T00:29:35.220Z,59.52
2017-06-25T00:30:15.713Z,59.9
2017-06-25T00:30:56.224Z,59.23
2017-06-25T00:31:36.717Z,59.71
2017-06-25T00:32:17.215Z,59.13
2017-06-25T00:32:57.710Z,59.42
2017-06-25T00:33:38.204Z,59.42
2017-06-25T00:34:18.694Z,59.9
2017-06-25T00:34:59.186Z,59.8
2017-06-25T00:35:39.676Z,59.42
2017-06-25T00:36:20.172Z,59.71
2017-06-25T00:37:00.665Z,59.23
2017-06-25T00:37:41.157Z,59.9
2017-06-25T00:38:21.648Z,58.84
2017-06-25T00:39:02.153Z,59.71
2017-06-25T00:39:42.637Z,59.42
2017-06-25T00:40:23.134Z,59.61
2017-06-25T00:41:03.626Z,59.42
2017-06-25T00:41:44.122Z,59.32
2017-06-25T00:42:24.622Z,58.94
2017-06-25T00:43:05.097Z,58.65
2017-06-25T00:43:45.585Z,58.26
2017-06-25T00:44:26.093Z,58.45
2017-06-25T00:45:06.574Z,58.36
2017-06-25T00:45:47.057Z,58.17
2017-06-25T00:46:27.531Z,58.26
2017-06-25T00:47:08.011Z,58.45
2017-06-25T00:47:48.505Z,58.45
2017-06-25T00:48:28.989Z,58.45
2017-06-25T00:49:09.496Z,58.65
2017-06-25T00:49:49.982Z,58.65
2017-06-25T00:50:30.472Z,58.75
2017-06-25T00:51:10.967Z,58.75
2017-06-25T00:51:51.465Z,58.84
2017-06-25T00:52:31.956Z,58.55
2017-06-25T00:53:12.448Z,58.36
2017-06-25T00:53:52.932Z,58.65
2017-06-25T00:54:33.422Z,58.84
2017-06-25T00:55:13.925Z,58.94
2017-06-25T00:55:54.422Z,59.03
2017-06-25T00:56:34.904Z,58.94
2017-06-25T00:57:15.396Z,59.23
2017-06-25T00:57:55.887Z,58.84
2017-06-25T00:58:36.395Z,59.1
2017-06-25T00:59:16.872Z,59.32
2017-06-25T00:59:57.392Z,59.2
2017-06-25T01:00:37.862Z,59.2
2017-06-25T01:01:18.344Z,59.2
2017-06-25T01:01:58.839Z,59.68
2017-06-25T01:02:39.320Z,59.58
2017-06-25T01:03:19.824Z,59.58
2017-06-25T01:04:00.321Z,59.58
2017-06-25T01:04:40.812Z,60.06
2017-06-25T01:05:21.306Z,60.35
2017-06-25T01:06:01.799Z,60.06
2017-06-25T01:06:42.288Z,60.26
2017-06-25T01:07:22.785Z,60.26
2017-06-25T01:08:03.271Z,60.55
2017-06-25T01:08:43.771Z,60.55
2017-06-25T01:09:24.263Z,60.45
2017-06-25T01:10:04.755Z,60.35
2017-06-25T01:10:45.254Z,60.55
2017-06-25T01:11:25.757Z,60.64
2017-06-25T01:12:06.264Z,60.55
2017-06-25T01:12:46.746Z,60.16
2017-06-25T01:13:27.245Z,60.16
2017-06-25T01:14:07.737Z,60.16
2017-06-25T01:14:48.232Z,59.78
2017-06-25T01:15:28.729Z,59.39
2017-06-25T01:16:09.220Z,59.58
2017-06-25T01:16:49.730Z,59.87
2017-06-25T01:17:30.245Z,59.68
2017-06-25T01:18:10.736Z,59.48
2017-06-25T01:18:51.228Z,59.39
2017-06-25T01:19:31.703Z,59.68
2017-06-25T01:20:12.191Z,59.78
2017-06-25T01:20:52.695Z,59.87
2017-06-25T01:21:33.185Z,59.48
2017-06-25T01:22:13.691Z,59.48
2017-06-25T01:22:54.190Z,59.87
2017-06-25T01:23:34.686Z,59.68
2017-06-25T01:24:15.184Z,59.87
2017-06-25T01:24:55.688Z,59.87
2017-06-25T01:25:36.171Z,60.26
2017-06-25T01:26:16.670Z,60.16
2017-06-25T01:26:57.167Z,60.26
2017-06-25T01:27:37.659Z,60.06
2017-06-25T01:28:18.150Z,60.26
2017-06-25T01:28:58.645Z,60.32
2017-06-25T01:29:39.140Z,60.71
2017-06-25T01:30:19.638Z,61
2017-06-25T01:31:00.138Z,60.9
2017-06-25T01:31:40.696Z,61
2017-06-25T01:32:21.200Z,61
2017-06-25T01:33:01.694Z,61.1
2017-06-25T01:33:42.191Z,61.68
2017-06-25T01:34:22.679Z,61.48
2017-06-25T01:35:03.175Z,61.77
2017-06-25T01:35:43.665Z,61.96
2017-06-25T01:36:24.158Z,61.77
2017-06-25T01:37:04.648Z,61.68
2017-06-25T01:37:45.164Z,61.77
2017-06-25T01:38:25.650Z,61.68
2017-06-25T01:39:06.142Z,61.58
2017-06-25T01:39:46.638Z,61.58
2017-06-25T01:40:27.144Z,61.77
2017-06-25T01:41:07.642Z,62.15
2017-06-25T01:41:48.139Z,62.15
2017-06-25T01:42:28.624Z,62.35
2017-06-25T01:43:09.120Z,62.06
2017-06-25T01:43:49.611Z,62.06
2017-06-25T01:44:30.091Z,62.54
2017-06-25T01:45:10.593Z,62.73
2017-06-25T01:45:51.072Z,62.54
2017-06-25T01:46:31.574Z,62.63
2017-06-25T01:47:12.064Z,62.54
2017-06-25T01:47:52.575Z,62.63
2017-06-25T01:48:33.079Z,62.35
2017-06-25T01:49:13.571Z,62.63
2017-06-25T01:49:54.071Z,62.73
2017-06-25T01:50:34.547Z,62.83
2017-06-25T01:51:15.045Z,63.02
2017-06-25T01:51:55.542Z,62.83
2017-06-25T01:52:36.043Z,63.02
2017-06-25T01:53:16.539Z,62.93
2017-06-25T01:53:57.024Z,63.12
2017-06-25T01:54:37.518Z,63.31
2017-06-25T01:55:18.019Z,63.21
2017-06-25T01:55:58.499Z,63.21
2017-06-25T01:56:38.999Z,63.02
2017-06-25T01:57:19.498Z,63.12
2017-06-25T01:57:59.980Z,63.21
2017-06-25T01:58:40.471Z,62.73
2017-06-25T01:59:20.962Z,62.83
2017-06-25T02:00:01.446Z,63.02
2017-06-25T02:00:41.945Z,62.83
2017-06-25T02:01:22.438Z,62.73
2017-06-25T02:02:02.927Z,62.83
2017-06-25T02:02:43.426Z,63.02
2017-06-25T02:03:23.916Z,63.21
2017-06-25T02:04:04.407Z,63.12
2017-06-25T02:04:44.902Z,63.12
2017-06-25T02:05:25.401Z,63.02
2017-06-25T02:06:05.886Z,62.83
2017-06-25T02:06:46.380Z,63.02
2017-06-25T02:07:26.871Z,63.12
2017-06-25T02:08:07.363Z,63.12
2017-06-25T02:08:47.857Z,63.79
2017-06-25T02:09:28.355Z,63.7
2017-06-25T02:10:08.846Z,64.18
2017-06-25T02:10:49.359Z,63.89
2017-06-25T02:11:29.865Z,63.89
2017-06-25T02:12:10.352Z,64.08
2017-06-25T02:12:50.851Z,64.66
2017-06-25T02:13:31.349Z,64.86
2017-06-25T02:14:11.850Z,64.76
2017-06-25T02:14:52.334Z,64.66
2017-06-25T02:15:32.834Z,64.28
2017-06-25T02:16:13.328Z,64.63
2017-06-25T02:16:53.845Z,64.47
2017-06-25T02:17:34.325Z,64.66
2017-06-25T02:18:14.819Z,63.89
2017-06-25T02:18:55.311Z,63.98
2017-06-25T02:19:35.804Z,64.08
2017-06-25T02:20:16.291Z,64.37
2017-06-25T02:20:56.806Z,64.37
2017-06-25T02:21:37.281Z,64.43
2017-06-25T02:22:17.769Z,64.37
2017-06-25T02:22:58.259Z,64.18
2017-06-25T02:23:38.767Z,63.6
2017-06-25T02:24:19.247Z,63.79
2017-06-25T02:24:59.737Z,63.79
2017-06-25T02:25:40.237Z,64.37
2017-06-25T02:26:20.729Z,64.37
2017-06-25T02:27:01.229Z,64.18
2017-06-25T02:27:41.732Z,63.7
2017-06-25T02:28:22.230Z,63.89
2017-06-25T02:29:02.745Z,63.7
2017-06-25T02:29:43.215Z,64.08
2017-06-25T02:30:23.715Z,63.5
2017-06-25T02:31:04.224Z,63.6
2017-06-25T02:31:44.700Z,63.79
2017-06-25T02:32:25.193Z,63.79
2017-06-25T02:33:05.684Z,63.6
2017-06-25T02:33:46.183Z,63.6
2017-06-25T02:34:26.679Z,63.6
2017-06-25T02:35:07.171Z,63.7
2017-06-25T02:35:47.659Z,63.79
2017-06-25T02:36:28.153Z,63.6
2017-06-25T02:37:08.641Z,63.41
2017-06-25T02:37:49.124Z,63.5
2017-06-25T02:38:29.600Z,63.76
2017-06-25T02:39:10.094Z,63.57
2017-06-25T02:39:50.598Z,63.6
2017-06-25T02:40:31.097Z,63.89
2017-06-25T02:41:11.593Z,63.12
2017-06-25T02:41:52.079Z,63.7
2017-06-25T02:42:32.572Z,63.31
2017-06-25T02:43:13.069Z,63.7
2017-06-25T02:43:53.559Z,63.6
2017-06-25T02:44:34.044Z,63.6
2017-06-25T02:45:14.545Z,63.89
2017-06-25T02:45:55.036Z,63.12
2017-06-25T02:46:35.529Z,63.79
2017-06-25T02:47:16.025Z,63.6
2017-06-25T02:47:56.517Z,63.6
2017-06-25T02:48:37.009Z,63.5
2017-06-25T02:49:17.515Z,63.6
2017-06-25T02:49:58.001Z,63.6
2017-06-25T02:50:38.491Z,63.02
2017-06-25T02:51:18.975Z,62.93
2017-06-25T02:51:59.464Z,63.02
2017-06-25T02:52:39.959Z,62.93
2017-06-25T02:53:20.430Z,62.73
2017-06-25T02:54:00.932Z,63.12
2017-06-25T02:54:41.424Z,62.73
2017-06-25T02:55:21.913Z,62.73
2017-06-25T02:56:02.417Z,63.21
2017-06-25T02:56:42.903Z,62.83
2017-06-25T02:57:23.400Z,62.73
2017-06-25T02:58:03.897Z,62.63
2017-06-25T02:58:44.387Z,62.93
2017-06-25T02:59:24.886Z,62.63
2017-06-25T03:00:05.380Z,62.83
2017-06-25T03:00:45.876Z,63.21
2017-06-25T03:01:26.371Z,63.02
2017-06-25T03:02:06.853Z,62.73
2017-06-25T03:02:47.345Z,63.02
2017-06-25T03:03:27.841Z,63.67
2017-06-25T03:04:08.331Z,63.85
2017-06-25T03:04:48.824Z,63.38
2017-06-25T03:05:29.326Z,63.28
2017-06-25T03:06:09.799Z,63.76
2017-06-25T03:06:50.279Z,63.28
2017-06-25T03:07:30.767Z,63.76
2017-06-25T03:08:11.273Z,63.85
2017-06-25T03:08:51.778Z,63.76
2017-06-25T03:09:32.265Z,63.67
2017-06-25T03:10:12.772Z,63.67
2017-06-25T03:10:53.255Z,63.67
2017-06-25T03:11:33.747Z,63.57
2017-06-25T03:12:14.236Z,63.76
2017-06-25T03:12:54.734Z,63.76
2017-06-25T03:13:35.234Z,63.57
2017-06-25T03:14:15.714Z,63.67
2017-06-25T03:14:56.221Z,63.47
2017-06-25T03:15:36.699Z,63.76
2017-06-25T03:16:17.184Z,63.95
2017-06-25T03:16:57.684Z,64.05
2017-06-25T03:17:38.179Z,64.05
2017-06-25T03:18:18.677Z,64.05
2017-06-25T03:18:59.164Z,63.67
2017-06-25T03:19:39.658Z,63.95
2017-06-25T03:20:20.150Z,64.15
2017-06-25T03:21:00.640Z,63.85
2017-06-25T03:21:41.139Z,63.47
2017-06-25T03:22:21.621Z,63.67
2017-06-25T03:23:02.112Z,63.76
2017-06-25T03:23:42.610Z,64.15
2017-06-25T03:24:23.104Z,63.95
2017-06-25T03:25:03.600Z,64.12
2017-06-25T03:25:44.086Z,64.43
2017-06-25T03:28:01.917Z,64.53
2017-06-25T03:28:42.434Z,64.43
2017-06-25T03:29:22.924Z,64.05
2017-06-25T03:30:03.401Z,64.25
2017-06-25T03:30:43.896Z,64.43
2017-06-25T03:31:24.389Z,64.82
2017-06-25T03:32:04.879Z,64.73
2017-06-25T03:32:45.372Z,64.63
2017-06-25T03:33:25.859Z,64.53
2017-06-25T03:34:06.356Z,64.53
2017-06-25T03:34:46.850Z,64.53
2017-06-25T03:35:27.341Z,64.43
2017-06-25T03:36:07.829Z,64.53
2017-06-25T03:36:48.316Z,64.69
2017-06-25T03:37:28.809Z,64.89
2017-06-25T03:38:09.301Z,64.89
2017-06-25T03:38:49.844Z,65.27
2017-06-25T03:39:30.267Z,64.59
2017-06-25T03:40:10.753Z,65.08
2017-06-25T03:40:51.248Z,65.08
2017-06-25T03:41:31.738Z,65.27
2017-06-25T03:42:12.221Z,64.59
2017-06-25T03:42:52.705Z,65.17
2017-06-25T03:43:33.206Z,65.08
2017-06-25T03:44:13.699Z,64.98
2017-06-25T03:44:54.218Z,64.89
2017-06-25T03:45:34.676Z,65.17
2017-06-25T03:46:15.177Z,65.08
2017-06-25T03:46:55.651Z,64.79
2017-06-25T03:47:36.163Z,64.98
2017-06-25T03:48:16.650Z,65.08
2017-06-25T03:48:57.138Z,64.89
2017-06-25T03:49:37.641Z,64.89
2017-06-25T03:50:18.129Z,65.17
2017-06-25T03:50:58.627Z,65.08
2017-06-25T03:51:39.117Z,64.89
2017-06-25T03:52:19.608Z,64.89
2017-06-25T03:53:00.090Z,65.17
2017-06-25T03:53:40.572Z,64.98
2017-06-25T03:54:21.049Z,64.69
2017-06-25T03:55:01.539Z,65.27
2017-06-25T03:55:42.029Z,65.27
2017-06-25T03:56:22.552Z,65.08
2017-06-25T03:57:03.024Z,65.27
2017-06-25T03:57:43.513Z,64.98
2017-06-25T03:58:23.998Z,64.79
2017-06-25T03:59:04.493Z,65.27
2017-06-25T03:59:44.990Z,65.08
2017-06-25T04:00:25.481Z,64.89
2017-06-25T04:01:05.975Z,64.98
2017-06-25T04:01:46.459Z,64.98
2017-06-25T04:02:26.943Z,65.56
2017-06-25T04:03:07.446Z,65.27
2017-06-25T04:03:48.495Z,65.46
2017-06-25T04:04:28.993Z,65.37
2017-06-25T04:05:09.487Z,65.37
2017-06-25T04:05:49.990Z,65.85
2017-06-25T04:06:30.479Z,65.75
2017-06-25T04:07:10.979Z,65.75
2017-06-25T04:07:51.472Z,65.66
2017-06-25T04:08:31.980Z,65.66
2017-06-25T04:09:12.458Z,65.66
2017-06-25T04:09:52.951Z,65.46
2017-06-25T04:10:33.449Z,65.66
2017-06-25T04:11:13.962Z,65.75
2017-06-25T04:11:54.426Z,65.66
2017-06-25T04:12:34.916Z,65.66
2017-06-25T04:13:15.414Z,65.66
2017-06-25T04:13:55.908Z,65.66
2017-06-25T04:14:36.393Z,65.56
2017-06-25T04:15:16.892Z,65.56
2017-06-25T04:15:57.375Z,65.27
2017-06-25T04:16:37.878Z,65.56
2017-06-25T04:17:18.363Z,65.08
2017-06-25T04:17:58.865Z,65.08
2017-06-25T04:18:39.357Z,65.27
2017-06-25T04:19:19.825Z,64.92
2017-06-25T04:20:00.325Z,65.56
2017-06-25T04:20:40.828Z,64.79
2017-06-25T04:21:21.324Z,65.11
2017-06-25T04:22:01.816Z,65.01
2017-06-25T04:22:42.306Z,65.11
2017-06-25T04:23:22.802Z,64.92
2017-06-25T04:24:03.284Z,65.5
2017-06-25T04:24:43.784Z,65.3
2017-06-25T04:25:24.275Z,65.3
2017-06-25T04:26:04.768Z,65.4
2017-06-25T04:26:45.253Z,65.4
2017-06-25T04:27:25.739Z,65.01
2017-06-25T04:28:06.225Z,64.92
2017-06-25T04:28:46.726Z,64.82
2017-06-25T04:29:27.227Z,65.3
2017-06-25T04:30:07.726Z,64.92
2017-06-25T04:30:48.217Z,65.05
2017-06-25T04:31:28.706Z,65.01
2017-06-25T04:32:09.200Z,65.14
2017-06-25T04:32:49.686Z,64.86
2017-06-25T04:33:30.184Z,64.66
2017-06-25T04:34:10.682Z,64.66
2017-06-25T04:34:51.200Z,64.37
2017-06-25T04:35:31.698Z,64.08
2017-06-25T04:36:12.181Z,64.28
2017-06-25T04:36:52.684Z,64.08
2017-06-25T04:37:33.170Z,63.6
2017-06-25T04:38:13.666Z,63.79
2017-06-25T04:38:54.161Z,63.79
2017-06-25T04:39:34.648Z,63.89
2017-06-25T04:40:15.132Z,63.6
2017-06-25T04:40:55.630Z,63.31
2017-06-25T04:41:36.121Z,62.86
2017-06-25T04:42:16.614Z,62.76
2017-06-25T04:42:57.113Z,62.09
2017-06-25T04:43:37.613Z,62.18
2017-06-25T04:44:18.112Z,62.38
2017-06-25T04:44:58.597Z,61.74
2017-06-25T04:45:39.082Z,61.83
2017-06-25T04:46:19.574Z,61.54
2017-06-25T04:47:00.065Z,61.54
2017-06-25T04:47:40.560Z,61.74
2017-06-25T04:48:21.050Z,61.74
2017-06-25T04:49:01.548Z,62.02
2017-06-25T04:49:42.039Z,61.99
2017-06-25T04:50:22.576Z,62.02
2017-06-25T04:51:03.029Z,62.12
2017-06-25T04:51:43.514Z,62.38
2017-06-25T04:52:24.004Z,61.9
2017-06-25T04:53:04.498Z,61.83
2017-06-25T04:53:44.975Z,61.71
2017-06-25T04:54:25.477Z,61.61
2017-06-25T04:55:05.992Z,61.71
2017-06-25T04:55:46.499Z,61.64
2017-06-25T04:56:26.983Z,61.44
2017-06-25T04:57:07.482Z,61.54
2017-06-25T04:57:47.972Z,61.06
2017-06-25T04:58:28.507Z,61.16
2017-06-25T04:59:08.963Z,61.25
2017-06-25T04:59:49.458Z,61.06
2017-06-25T05:00:29.955Z,61.06
2017-06-25T05:01:10.443Z,61.16
2017-06-25T05:01:50.938Z,61.06
2017-06-25T05:02:31.434Z,61.44
2017-06-25T05:03:11.927Z,61.54
2017-06-25T05:03:52.407Z,61.35
2017-06-25T05:04:32.908Z,61.35
2017-06-25T05:05:13.396Z,61.64
2017-06-25T05:05:53.905Z,61.99
2017-06-25T05:06:34.376Z,62.66
2017-06-25T05:07:14.872Z,63.06
2017-06-25T05:07:55.362Z,63.15
2017-06-25T05:08:35.861Z,63.24
2017-06-25T05:09:16.347Z,63.34
2017-06-25T05:09:56.839Z,62.96
2017-06-25T05:10:37.334Z,62.7
2017-06-25T05:11:17.823Z,62.7
2017-06-25T05:11:58.316Z,61.93
2017-06-25T05:12:38.811Z,61.83
2017-06-25T05:13:19.301Z,61.74
2017-06-25T05:13:59.798Z,61.83
2017-06-25T05:14:40.289Z,61.74
2017-06-25T05:15:20.785Z,61.54
2017-06-25T05:16:01.273Z,61.93
2017-06-25T05:16:41.763Z,61.74
2017-06-25T05:17:22.255Z,62.31
2017-06-25T05:18:02.735Z,62.6
2017-06-25T05:18:43.235Z,62.6
2017-06-25T05:19:23.730Z,62.02
2017-06-25T05:20:04.226Z,62.22
2017-06-25T05:20:44.720Z,62.12
2017-06-25T05:21:25.210Z,62.02
2017-06-25T05:22:05.695Z,62.99
2017-06-25T05:22:46.193Z,62.6
2017-06-25T05:23:26.685Z,62.31
2017-06-25T05:24:07.179Z,62.02
2017-06-25T05:24:47.673Z,61.77
2017-06-25T05:25:28.164Z,61.77
2017-06-25T05:26:08.656Z,61.28
2017-06-25T05:26:49.150Z,61.38
2017-06-25T05:27:29.637Z,60.8
2017-06-25T05:28:10.128Z,60.54
2017-06-25T05:28:50.631Z,60.16
2017-06-25T05:29:31.121Z,60.64
2017-06-25T05:30:11.606Z,59.67
2017-06-25T05:30:52.107Z,59.19
2017-06-25T05:31:32.592Z,59.02
2017-06-25T05:32:13.084Z,58.64
2017-06-25T05:32:53.582Z,58.45
2017-06-25T05:33:34.072Z,58.25
2017-06-25T05:34:14.566Z,58.45
2017-06-25T05:34:55.058Z,58.06
2017-06-25T05:35:35.547Z,58.15
2017-06-25T05:36:16.040Z,58.09
2017-06-25T05:36:56.534Z,57.7
2017-06-25T05:37:37.044Z,56.28
2017-06-25T05:38:17.548Z,56.18
2017-06-25T05:38:58.043Z,55.7
2017-06-25T05:39:38.532Z,56.11
2017-06-25T05:40:19.034Z,55.43
2017-06-25T05:40:59.522Z,55.92
2017-06-25T05:41:40.024Z,55.79
2017-06-25T05:42:20.510Z,56.25
2017-06-25T05:43:01.008Z,56.9
2017-06-25T05:43:41.495Z,57.19
2017-06-25T05:44:22.010Z,57.77
2017-06-25T05:45:02.505Z,58.45
2017-06-25T05:45:43.010Z,59.12
2017-06-25T05:46:23.504Z,59
2017-06-25T05:47:04.005Z,58.9
2017-06-25T05:47:44.504Z,59.19
2017-06-25T05:48:25.005Z,58.9
2017-06-25T05:49:05.504Z,59.28
2017-06-25T05:49:45.989Z,59
2017-06-25T05:50:26.481Z,59.19
2017-06-25T05:51:06.980Z,59.55
2017-06-25T05:51:47.461Z,60.13
2017-06-25T05:52:27.963Z,59.67
2017-06-25T05:53:08.451Z,59.55
2017-06-25T05:53:48.943Z,59.58
2017-06-25T05:54:29.434Z,59.38
2017-06-25T05:55:09.932Z,59.02
2017-06-25T05:55:50.419Z,58.54
2017-06-25T05:56:30.914Z,57.29
2017-06-25T05:57:11.405Z,56.41
2017-06-25T05:57:51.902Z,56.05
2017-06-25T05:58:32.395Z,55.51
2017-06-25T05:59:12.882Z,55.51
2017-06-25T05:59:53.385Z,54.57
2017-06-25T06:00:33.878Z,54.17
2017-06-25T06:01:14.381Z,53.53
2017-06-25T06:01:54.882Z,52.56
2017-06-25T06:02:35.365Z,51.9
2017-06-25T06:03:15.849Z,51.9
2017-06-25T06:03:56.334Z,51.16
2017-06-25T06:04:36.819Z,50.57
2017-06-25T06:05:17.323Z,49.8
2017-06-25T06:05:57.818Z,49.7
2017-06-25T06:06:38.314Z,50.29
2017-06-25T06:07:18.816Z,49.9
2017-06-25T06:07:59.301Z,49.82
2017-06-25T06:08:39.805Z,49.34
2017-06-25T06:09:20.300Z,48.97
2017-06-25T06:10:00.818Z,48.66
2017-06-25T06:10:41.274Z,48.69
2017-06-25T06:11:21.736Z,48.37
2017-06-25T06:12:02.201Z,48.37
2017-06-25T06:12:42.702Z,47.81
2017-06-25T06:13:23.197Z,47.62
2017-06-25T06:14:03.692Z,47.52
2017-06-25T06:14:44.199Z,46.75
2017-06-25T06:15:24.694Z,46.94
2017-06-25T06:16:05.189Z,46.75
2017-06-25T06:16:45.691Z,46.75
2017-06-25T06:17:26.186Z,47.03
2017-06-25T06:18:06.690Z,46.26
2017-06-25T06:18:47.198Z,46.09
2017-06-25T06:19:27.699Z,45.41
2017-06-25T06:20:08.187Z,45.61
2017-06-25T06:20:48.695Z,45.14
2017-06-25T06:21:29.206Z,44.92
2017-06-25T06:22:09.696Z,44.92
2017-06-25T06:22:50.181Z,46.07
2017-06-25T06:23:30.677Z,45.31
2017-06-25T06:24:11.187Z,45.53
2017-06-25T06:24:51.676Z,44.85
2017-06-25T06:25:32.182Z,44.07
2017-06-25T06:26:12.672Z,44
2017-06-25T06:26:53.169Z,43.51
2017-06-25T06:27:33.662Z,44.65
2017-06-25T06:28:14.157Z,43.98
2017-06-25T06:28:54.650Z,44.46
2017-06-25T06:29:35.145Z,44.73
2017-06-25T06:30:15.639Z,44.75
2017-06-25T06:30:56.137Z,44.56
2017-06-25T06:31:36.638Z,44.09
2017-06-25T06:32:17.148Z,43.41
2017-06-25T06:32:57.655Z,42.85
2017-06-25T06:33:38.150Z,42.95
2017-06-25T06:34:18.670Z,41.71
2017-06-25T06:34:59.170Z,41.63
2017-06-25T06:35:39.670Z,40.75
2017-06-25T06:36:20.166Z,40.29
2017-06-25T06:37:00.661Z,40
2017-06-25T06:37:41.161Z,40
2017-06-25T06:38:21.660Z,39.8
2017-06-25T06:39:02.168Z,39.34
2017-06-25T06:39:42.672Z,38.57
2017-06-25T06:40:23.195Z,38.28
2017-06-25T06:41:03.693Z,37.77
2017-06-25T06:41:44.203Z,37.68
2017-06-25T06:42:24.706Z,38.56
2017-06-25T06:43:05.207Z,38.64
2017-06-25T06:43:45.705Z,39.78
2017-06-25T06:44:26.216Z,39.51
2017-06-25T06:45:06.713Z,39.69
2017-06-25T06:45:47.217Z,39.78
2017-06-25T06:46:27.723Z,39.86
2017-06-25T06:47:08.208Z,40.89
2017-06-25T06:47:48.703Z,41.2
2017-06-25T06:48:29.220Z,40.31
2017-06-25T06:49:09.723Z,40.67
2017-06-25T06:49:50.221Z,41.36
2017-06-25T06:50:30.716Z,41.06
2017-06-25T06:51:11.210Z,41.45
2017-06-25T06:51:51.718Z,40.87
2017-06-25T06:52:32.206Z,40.87
2017-06-25T06:53:12.702Z,41.08
2017-06-25T06:53:53.199Z,40.42
2017-06-25T06:54:33.694Z,39.96
2017-06-25T06:55:14.193Z,39.49
2017-06-25T06:55:54.694Z,38.91
2017-06-25T06:56:35.203Z,38.81
2017-06-25T06:57:15.700Z,38.71
2017-06-25T06:57:56.198Z,38.79
2017-06-25T06:58:36.692Z,39.76
2017-06-25T06:59:17.182Z,39.86
2017-06-25T06:59:57.669Z,39.57
2017-06-25T07:00:38.168Z,39.76
2017-06-25T07:01:18.662Z,39.45
2017-06-25T07:01:59.159Z,39.84
2017-06-25T07:02:39.661Z,40.42
2017-06-25T07:03:20.163Z,40.5
2017-06-25T07:04:00.664Z,41.26
2017-06-25T07:04:41.156Z,41.06
2017-06-25T07:05:21.651Z,41.18
2017-06-25T07:06:02.142Z,41.08
2017-06-25T07:06:42.643Z,41.16
2017-06-25T07:07:23.140Z,41.26
2017-06-25T07:08:03.651Z,41.45
2017-06-25T07:08:44.149Z,41.36
2017-06-25T07:09:24.651Z,41.36
2017-06-25T07:10:05.151Z,41.26
2017-06-25T07:10:45.652Z,41.45
2017-06-25T07:11:26.148Z,41.06
2017-06-25T07:12:06.638Z,41.64
2017-06-25T07:12:47.147Z,41.55
2017-06-25T07:13:27.649Z,41.06
2017-06-25T07:14:08.150Z,41.06
2017-06-25T07:14:48.675Z,41.08
2017-06-25T07:15:29.186Z,40.87
2017-06-25T07:16:09.687Z,40.77
2017-06-25T07:16:50.190Z,40.58
2017-06-25T07:17:30.689Z,41.18
2017-06-25T07:18:11.169Z,40.5
2017-06-25T07:18:51.658Z,40.77
2017-06-25T07:19:32.155Z,40.39
2017-06-25T07:20:12.652Z,40.31
2017-06-25T07:20:53.158Z,40.01
2017-06-25T07:21:33.662Z,40.01
2017-06-25T07:22:14.158Z,38.7
2017-06-25T07:22:54.654Z,38.03
2017-06-25T07:23:35.146Z,37.43
2017-06-25T07:25:47.867Z,37.18
2017-06-25T07:26:28.362Z,36.41
2017-06-25T07:27:08.858Z,36.02
2017-06-25T07:27:49.374Z,35.53
2017-06-25T07:28:29.856Z,35.26
2017-06-25T07:29:10.353Z,35.65
2017-06-25T07:29:50.855Z,35.63
2017-06-25T07:30:31.356Z,35.75
2017-06-25T07:31:11.858Z,34.89
2017-06-25T07:31:52.349Z,35.28
2017-06-25T07:32:32.844Z,34.63
2017-06-25T07:33:13.340Z,33.28
2017-06-25T07:33:53.864Z,33.09
2017-06-25T07:34:34.360Z,32.99
2017-06-25T07:35:14.850Z,32.32
2017-06-25T07:35:55.346Z,32.04
2017-06-25T07:36:35.843Z,31.74
2017-06-25T07:37:16.322Z,32.21
2017-06-25T07:39:29.076Z,32.5
2017-06-25T07:40:09.559Z,32.21
2017-06-25T07:40:50.042Z,32.24
2017-06-25T07:41:30.545Z,31.45
2017-06-25T07:42:11.031Z,32.13
2017-06-25T07:42:51.532Z,32.31
2017-06-25T07:43:32.024Z,31.64
2017-06-25T07:44:12.522Z,32.57
2017-06-25T07:44:53.019Z,32.31
2017-06-25T07:45:33.500Z,32.6
2017-06-25T07:46:13.996Z,32.03
2017-06-25T07:46:54.479Z,31.64
2017-06-25T07:47:34.981Z,32.03
2017-06-25T07:48:15.476Z,32.4
2017-06-25T07:48:55.968Z,32.14
2017-06-25T07:49:36.471Z,31.56
2017-06-25T07:50:16.975Z,30.61
2017-06-25T07:50:57.474Z,29.66
2017-06-25T07:51:37.972Z,30.51
2017-06-25T07:52:18.457Z,30.49
2017-06-25T07:52:58.953Z,30.98
2017-06-25T07:53:39.446Z,31.16
2017-06-25T07:54:19.930Z,31.18
2017-06-25T07:55:00.433Z,30.88
2017-06-25T07:55:40.934Z,31.07
2017-06-25T07:56:21.441Z,31.35
2017-06-25T07:57:01.937Z,32.31
2017-06-25T07:57:42.431Z,32.48
2017-06-25T07:58:22.927Z,32.4
2017-06-25T07:59:03.422Z,32.13
2017-06-25T07:59:43.920Z,31.84
2017-06-25T08:00:24.425Z,32.78
2017-06-25T08:01:04.927Z,32.21
2017-06-25T08:01:45.417Z,32.21
2017-06-25T08:02:25.919Z,31.93
2017-06-25T08:03:06.418Z,31.92
2017-06-25T08:03:46.917Z,31.08
2017-06-25T08:04:27.415Z,30.77
2017-06-25T08:05:07.958Z,30.12
2017-06-25T08:05:48.415Z,29.45
2017-06-25T08:06:28.912Z,29.63
2017-06-25T08:07:09.425Z,29.24
2017-06-25T08:07:49.908Z,29.53
2017-06-25T08:08:30.407Z,29.35
2017-06-25T08:09:10.900Z,29.16
2017-06-25T08:09:51.971Z,30.1
2017-06-25T08:10:32.473Z,29.93
2017-06-25T08:11:12.986Z,30.4
2017-06-25T08:11:53.481Z,29.83
2017-06-25T08:12:33.980Z,30.22
2017-06-25T08:13:14.470Z,29.56
2017-06-25T08:13:54.967Z,29.25
2017-06-25T08:14:35.481Z,29.45
2017-06-25T08:15:15.974Z,28.59
2017-06-25T08:15:56.476Z,28.12
2017-06-25T08:16:36.976Z,28.78
2017-06-25T08:17:17.484Z,29.9
2017-06-25T08:17:57.983Z,30.58
2017-06-25T08:18:38.471Z,31.62
2017-06-25T08:19:18.980Z,32.09
2017-06-25T08:19:59.474Z,32.21
2017-06-25T08:20:39.980Z,31.84
2017-06-25T08:21:20.507Z,31.16
2017-06-25T08:22:01.002Z,30.79
2017-06-25T08:22:41.496Z,30.59
2017-06-25T08:23:21.991Z,31.16
2017-06-25T08:24:02.476Z,30.97
2017-06-25T08:24:42.981Z,32.23
2017-06-25T08:25:23.468Z,31.84
2017-06-25T08:26:03.964Z,32.21
2017-06-25T08:26:44.463Z,31.75
2017-06-25T08:27:24.961Z,31.84
2017-06-25T08:28:05.459Z,32.52
2017-06-25T08:28:45.966Z,32.03
2017-06-25T08:29:26.461Z,31.46
2017-06-25T08:30:07.656Z,31.28
2017-06-25T08:30:48.155Z,30.98
2017-06-25T08:31:28.652Z,30.71
2017-06-25T08:32:09.144Z,30.23
2017-06-25T08:32:49.624Z,30.02
2017-06-25T08:33:30.131Z,30.12
2017-06-25T08:34:10.632Z,30.1
2017-06-25T08:34:51.130Z,30.87
2017-06-25T08:35:31.625Z,31.92
2017-06-25T08:36:12.130Z,32.39
2017-06-25T08:36:52.626Z,33.15
2017-06-25T08:37:33.127Z,33.25
2017-06-25T08:38:13.622Z,34
2017-06-25T08:38:54.121Z,34.88
2017-06-25T08:39:34.620Z,34.61
2017-06-25T08:40:15.122Z,33.85
2017-06-25T08:40:55.614Z,32.32
2017-06-25T08:41:36.114Z,31.38
2017-06-25T08:42:16.604Z,30.41
2017-06-25T08:42:57.096Z,29.27
2017-06-25T08:43:37.583Z,29.17
2017-06-25T08:44:18.079Z,28.01
2017-06-25T08:44:58.569Z,28.49
2017-06-25T08:45:39.065Z,28.59
2017-06-25T08:46:19.588Z,27.81
2017-06-25T08:47:00.078Z,27.56
2017-06-25T08:47:40.563Z,27.61
2017-06-25T08:48:21.021Z,28
2017-06-25T08:49:01.487Z,28.19
2017-06-25T08:49:41.972Z,27.83
2017-06-25T08:50:22.470Z,27.26